Time,TemperatureF,DewpointF,PressureIn,WindDirection,WindDirectionDegrees,WindSpeedMPH,WindSpeedGustMPH,Humidity,HourlyPrecipIn,Conditions,Clouds,dailyrainin,SoftwareType,DateUTC
2013-10-03 00:01:00,60.9,59.5,30.08,South,170,0.0,0.0,95,0.00,,,0.00,Wunderground v.1.15,2013-10-03 04:01:00,
2013-10-03 00:03:00,60.8,59.4,30.08,South,170,0.0,0.0,95,0.00,,,0.00,Wunderground v.1.15,2013-10-03 04:03:00,
2013-10-03 00:04:00,60.8,59.4,30.07,South,170,0.0,0.0,95,0.00,,,0.00,Wunderground v.1.15,2013-10-03 04:04:00,
2013-10-03 00:06:00,60.7,59.3,30.08,South,170,0.0,0.0,95,0.00,,,0.00,Wunderground v.1.15,2013-10-03 04:06:00,
2013-10-03 00:09:00,60.7,59.3,30.08,South,170,0.0,0.0,95,0.00,,,0.00,Wunderground v.1.15,2013-10-03 04:09:00,
2013-10-03 00:14:00,60.5,59.1,30.07,South,170,0.0,0.0,95,0.00,,,0.00,Wunderground v.1.15,2013-10-03 04:14:00,
2013-10-03 00:16:00,60.5,59.1,30.08,South,170,0.0,0.0,95,0.00,,,0.00,Wunderground v.1.15,2013-10-03 04:16:00,
2013-10-03 00:21:00,60.4,59.0,30.08,South,170,0.0,0.0,95,0.00,,,0.00,Wunderground v.1.15,2013-10-03 04:21:00,
2013-10-03 00:27:00,60.3,58.9,30.08,South,170,0.0,0.0,95,0.00,,,0.00,Wunderground v.1.15,2013-10-03 04:27:00,
2013-10-03 00:33:00,60.2,58.8,30.08,South,170,0.0,0.0,95,0.00,,,0.00,Wunderground v.1.15,2013-10-03 04:33:00,
2013-10-03 00:38:00,60.2,58.8,30.08,South,170,0.0,0.0,95,0.00,,,0.00,Wunderground v.1.15,2013-10-03 04:38:00,
2013-10-03 00:44:00,60.1,58.7,30.08,South,170,0.0,0.0,95,0.00,,,0.00,Wunderground v.1.15,2013-10-03 04:44:00,
2013-10-03 00:49:00,59.9,58.5,30.08,South,170,0.0,0.0,95,0.00,,,0.00,Wunderground v.1.15,2013-10-03 04:49:00,
2013-10-03 00:55:00,59.8,58.4,30.08,South,170,0.0,0.0,95,0.00,,,0.00,Wunderground v.1.15,2013-10-03 04:55:00,
2013-10-03 01:00:00,59.7,58.3,30.08,South,170,0.0,0.0,95,0.00,,,0.00,Wunderground v.1.15,2013-10-03 05:00:00,
2013-10-03 01:06:00,59.6,58.2,30.08,South,170,0.0,0.0,95,0.00,,,0.00,Wunderground v.1.15,2013-10-03 05:06:00,
2013-10-03 01:11:00,59.6,58.2,30.08,South,170,0.0,0.0,95,0.00,,,0.00,Wunderground v.1.15,2013-10-03 05:11:00,
2013-10-03 01:16:00,59.6,58.2,30.08,South,170,0.0,0.0,95,0.00,,,0.00,Wunderground v.1.15,2013-10-03 05:16:00,
2013-10-03 01:22:00,59.4,58.0,30.08,South,170,0.0,0.0,95,0.00,,,0.00,Wunderground v.1.15,2013-10-03 05:22:00,
2013-10-03 01:27:00,59.3,57.9,30.08,South,170,0.0,0.0,95,0.00,,,0.00,Wunderground v.1.15,2013-10-03 05:27:00,
2013-10-03 01:32:00,59.2,57.8,30.08,South,170,0.0,0.0,95,0.00,,,0.00,Wunderground v.1.15,2013-10-03 05:32:00,
2013-10-03 01:38:00,59.1,57.7,30.08,South,170,0.0,0.0,95,0.00,,,0.00,Wunderground v.1.15,2013-10-03 05:38:00,
2013-10-03 01:43:00,58.9,57.5,30.08,South,170,0.0,0.0,95,0.00,,,0.00,Wunderground v.1.15,2013-10-03 05:43:00,
2013-10-03 01:48:00,58.8,57.4,30.08,South,170,0.0,0.0,95,0.00,,,0.00,Wunderground v.1.15,2013-10-03 05:48:00,
2013-10-03 01:54:00,58.7,57.3,30.08,South,170,0.0,0.0,95,0.00,,,0.00,Wunderground v.1.15,2013-10-03 05:54:00,
2013-10-03 01:59:00,58.8,57.7,30.08,South,170,0.0,0.0,96,0.00,,,0.00,Wunderground v.1.15,2013-10-03 05:59:00,
2013-10-03 02:04:00,58.8,57.7,30.08,South,170,0.0,0.0,96,0.00,,,0.00,Wunderground v.1.15,2013-10-03 06:04:00,
2013-10-03 02:10:00,58.8,57.7,30.08,South,170,0.0,0.0,96,0.00,,,0.00,Wunderground v.1.15,2013-10-03 06:10:00,
2013-10-03 02:15:00,58.8,57.7,30.08,South,170,0.0,0.0,96,0.00,,,0.00,Wunderground v.1.15,2013-10-03 06:15:00,
2013-10-03 02:20:00,58.7,57.6,30.08,South,170,0.0,0.0,96,0.00,,,0.00,Wunderground v.1.15,2013-10-03 06:20:00,
2013-10-03 02:25:00,58.6,57.5,30.08,South,170,0.0,0.0,96,0.00,,,0.00,Wunderground v.1.15,2013-10-03 06:25:00,
2013-10-03 02:31:00,58.6,57.5,30.08,South,170,0.0,0.0,96,0.00,,,0.00,Wunderground v.1.15,2013-10-03 06:31:00,
2013-10-03 02:37:00,58.5,57.4,30.08,South,170,0.0,0.0,96,0.00,,,0.00,Wunderground v.1.15,2013-10-03 06:37:00,
2013-10-03 02:42:00,58.4,57.3,30.08,South,170,0.0,0.0,96,0.00,,,0.00,Wunderground v.1.15,2013-10-03 06:42:00,
2013-10-03 02:47:00,58.4,57.3,30.08,South,170,0.0,0.0,96,0.00,,,0.00,Wunderground v.1.15,2013-10-03 06:47:00,
2013-10-03 02:53:00,58.3,57.2,30.08,South,170,0.0,0.0,96,0.00,,,0.00,Wunderground v.1.15,2013-10-03 06:53:00,
2013-10-03 02:58:00,58.2,57.1,30.08,South,170,0.0,0.0,96,0.00,,,0.00,Wunderground v.1.15,2013-10-03 06:58:00,
2013-10-03 03:03:00,58.1,57.0,30.08,South,170,0.0,0.0,96,0.00,,,0.00,Wunderground v.1.15,2013-10-03 07:03:00,
2013-10-03 03:08:00,58.0,56.9,30.08,South,170,0.0,0.0,96,0.00,,,0.00,Wunderground v.1.15,2013-10-03 07:08:00,
2013-10-03 03:14:00,58.0,56.9,30.08,South,170,0.0,0.0,96,0.00,,,0.00,Wunderground v.1.15,2013-10-03 07:14:00,
2013-10-03 03:19:00,57.9,56.8,30.08,South,170,0.0,0.0,96,0.00,,,0.00,Wunderground v.1.15,2013-10-03 07:19:00,
2013-10-03 03:24:00,57.8,56.7,30.08,South,170,0.0,0.0,96,0.00,,,0.00,Wunderground v.1.15,2013-10-03 07:24:00,
2013-10-03 03:30:00,57.8,56.7,30.08,South,170,0.0,0.0,96,0.00,,,0.00,Wunderground v.1.15,2013-10-03 07:30:00,
2013-10-03 03:35:00,57.9,56.8,30.08,South,170,0.0,0.0,96,0.00,,,0.00,Wunderground v.1.15,2013-10-03 07:35:00,
2013-10-03 03:40:00,57.9,56.8,30.07,South,170,0.0,0.0,96,0.00,,,0.00,Wunderground v.1.15,2013-10-03 07:40:00,
2013-10-03 03:45:00,57.9,56.8,30.07,South,170,0.0,0.0,96,0.00,,,0.00,Wunderground v.1.15,2013-10-03 07:45:00,
2013-10-03 03:50:00,58.2,57.1,30.08,South,170,0.0,0.0,96,0.00,,,0.00,Wunderground v.1.15,2013-10-03 07:50:00,
2013-10-03 03:55:00,58.3,57.2,30.08,South,170,0.0,0.0,96,0.00,,,0.00,Wunderground v.1.15,2013-10-03 07:55:00,
2013-10-03 04:01:00,58.0,56.9,30.07,South,170,0.0,0.0,96,0.00,,,0.00,Wunderground v.1.15,2013-10-03 08:01:00,
2013-10-03 04:07:00,57.9,56.8,30.07,South,170,0.0,0.0,96,0.00,,,0.00,Wunderground v.1.15,2013-10-03 08:07:00,
2013-10-03 04:12:00,57.9,56.8,30.08,South,170,0.0,0.0,96,0.00,,,0.00,Wunderground v.1.15,2013-10-03 08:12:00,
2013-10-03 04:17:00,57.8,56.7,30.08,South,170,0.0,0.0,96,0.00,,,0.00,Wunderground v.1.15,2013-10-03 08:17:00,
2013-10-03 04:22:00,58.0,56.9,30.08,South,170,0.0,0.0,96,0.00,,,0.00,Wunderground v.1.15,2013-10-03 08:22:00,
2013-10-03 04:28:00,57.9,56.8,30.08,South,170,0.0,0.0,96,0.00,,,0.00,Wunderground v.1.15,2013-10-03 08:28:00,
2013-10-03 04:33:00,57.7,56.6,30.08,South,170,0.0,0.0,96,0.00,,,0.00,Wunderground v.1.15,2013-10-03 08:33:00,
2013-10-03 04:38:00,57.6,56.5,30.08,South,170,0.0,0.0,96,0.00,,,0.00,Wunderground v.1.15,2013-10-03 08:38:00,
2013-10-03 04:44:00,57.4,56.3,30.08,South,170,0.0,0.0,96,0.00,,,0.00,Wunderground v.1.15,2013-10-03 08:44:00,
2013-10-03 04:49:00,57.4,56.3,30.08,South,170,0.0,0.0,96,0.00,,,0.00,Wunderground v.1.15,2013-10-03 08:49:00,
2013-10-03 04:54:00,57.4,56.3,30.08,South,170,0.0,0.0,96,0.00,,,0.00,Wunderground v.1.15,2013-10-03 08:54:00,
2013-10-03 05:00:00,57.2,56.1,30.08,South,170,0.0,0.0,96,0.00,,,0.00,Wunderground v.1.15,2013-10-03 09:00:00,
2013-10-03 05:06:00,57.0,55.9,30.08,South,170,0.0,0.0,96,0.00,,,0.00,Wunderground v.1.15,2013-10-03 09:06:00,
2013-10-03 05:11:00,56.9,55.8,30.08,South,170,0.0,0.0,96,0.00,,,0.00,Wunderground v.1.15,2013-10-03 09:11:00,
2013-10-03 05:16:00,56.8,55.7,30.08,South,170,0.0,0.0,96,0.00,,,0.00,Wunderground v.1.15,2013-10-03 09:16:00,
2013-10-03 05:21:00,56.8,55.7,30.08,South,170,0.0,0.0,96,0.00,,,0.00,Wunderground v.1.15,2013-10-03 09:21:00,
2013-10-03 05:26:00,56.7,55.6,30.08,South,170,0.0,0.0,96,0.00,,,0.00,Wunderground v.1.15,2013-10-03 09:26:00,
2013-10-03 05:31:00,56.7,55.6,30.08,South,170,0.0,0.0,96,0.00,,,0.00,Wunderground v.1.15,2013-10-03 09:31:00,
2013-10-03 05:37:00,56.6,55.5,30.08,South,170,0.0,0.0,96,0.00,,,0.00,Wunderground v.1.15,2013-10-03 09:37:00,
2013-10-03 05:42:00,56.5,55.4,30.08,South,170,0.0,0.0,96,0.00,,,0.00,Wunderground v.1.15,2013-10-03 09:42:00,
2013-10-03 05:47:00,56.7,55.6,30.08,South,170,0.0,0.0,96,0.00,,,0.00,Wunderground v.1.15,2013-10-03 09:47:00,
2013-10-03 05:52:00,56.9,56.1,30.08,South,170,0.0,0.0,97,0.00,,,0.00,Wunderground v.1.15,2013-10-03 09:52:00,
2013-10-03 05:58:00,57.1,56.3,30.08,South,170,0.0,0.0,97,0.00,,,0.00,Wunderground v.1.15,2013-10-03 09:58:00,
2013-10-03 06:03:00,57.1,56.0,30.08,South,170,0.0,0.0,96,0.00,,,0.00,Wunderground v.1.15,2013-10-03 10:03:00,
2013-10-03 06:08:00,57.0,55.9,30.08,South,170,0.0,0.0,96,0.00,,,0.00,Wunderground v.1.15,2013-10-03 10:08:00,
2013-10-03 06:14:00,56.9,55.8,30.08,South,170,0.0,0.0,96,0.00,,,0.00,Wunderground v.1.15,2013-10-03 10:14:00,
2013-10-03 06:19:00,57.0,55.9,30.08,South,170,0.0,0.0,96,0.00,,,0.00,Wunderground v.1.15,2013-10-03 10:19:00,
2013-10-03 06:24:00,57.1,56.0,30.08,South,170,0.0,0.0,96,0.00,,,0.00,Wunderground v.1.15,2013-10-03 10:24:00,
2013-10-03 06:30:00,56.9,55.8,30.08,South,170,0.0,0.0,96,0.00,,,0.00,Wunderground v.1.15,2013-10-03 10:30:00,
2013-10-03 06:35:00,56.8,55.7,30.08,South,170,0.0,0.0,96,0.00,,,0.00,Wunderground v.1.15,2013-10-03 10:35:00,
2013-10-03 06:40:00,56.9,55.8,30.09,South,170,0.0,0.0,96,0.00,,,0.00,Wunderground v.1.15,2013-10-03 10:40:00,
2013-10-03 06:45:00,56.9,56.1,30.09,South,170,0.0,0.0,97,0.00,,,0.00,Wunderground v.1.15,2013-10-03 10:45:00,
2013-10-03 06:50:00,56.8,55.7,30.09,South,170,0.0,0.0,96,0.00,,,0.00,Wunderground v.1.15,2013-10-03 10:50:00,
2013-10-03 06:56:00,56.7,55.6,30.09,South,170,0.0,0.0,96,0.00,,,0.00,Wunderground v.1.15,2013-10-03 10:56:00,
2013-10-03 07:02:00,56.7,55.6,30.09,South,170,0.0,0.0,96,0.00,,,0.00,Wunderground v.1.15,2013-10-03 11:02:00,
2013-10-03 07:07:00,56.7,55.9,30.09,South,170,0.0,0.0,97,0.00,,,0.00,Wunderground v.1.15,2013-10-03 11:07:00,
2013-10-03 07:13:00,56.8,56.0,30.09,South,170,0.0,0.0,97,0.00,,,0.00,Wunderground v.1.15,2013-10-03 11:13:00,
2013-10-03 07:18:00,56.8,56.0,30.09,South,170,0.0,0.0,97,0.00,,,0.00,Wunderground v.1.15,2013-10-03 11:18:00,
2013-10-03 07:23:00,56.8,56.0,30.09,South,170,0.0,0.0,97,0.00,,,0.00,Wunderground v.1.15,2013-10-03 11:23:00,
2013-10-03 07:28:00,56.9,56.1,30.08,South,170,0.0,0.0,97,0.00,,,0.00,Wunderground v.1.15,2013-10-03 11:28:00,
2013-10-03 07:33:00,57.1,56.3,30.08,South,170,0.0,0.0,97,0.00,,,0.00,Wunderground v.1.15,2013-10-03 11:33:00,
2013-10-03 07:39:00,58.0,57.2,30.09,South,177,0.0,0.0,97,0.00,,,0.00,Wunderground v.1.15,2013-10-03 11:39:00,
2013-10-03 07:44:00,58.1,57.3,30.09,South,178,0.0,0.0,97,0.00,,,0.00,Wunderground v.1.15,2013-10-03 11:44:00,
2013-10-03 07:49:00,58.2,57.4,30.09,South,177,0.0,0.0,97,0.00,,,0.00,Wunderground v.1.15,2013-10-03 11:49:00,
2013-10-03 07:54:00,58.2,57.4,30.09,South,177,0.0,0.0,97,0.00,,,0.00,Wunderground v.1.15,2013-10-03 11:54:00,
2013-10-03 07:59:00,58.4,57.6,30.09,South,177,0.0,0.0,97,0.00,,,0.00,Wunderground v.1.15,2013-10-03 11:59:00,
2013-10-03 08:04:00,58.6,57.8,30.09,South,178,0.0,0.0,97,0.00,,,0.00,Wunderground v.1.15,2013-10-03 12:04:00,
2013-10-03 08:10:00,58.9,58.1,30.09,South,177,0.0,0.0,97,0.00,,,0.00,Wunderground v.1.15,2013-10-03 12:10:00,
2013-10-03 08:15:00,59.2,58.3,30.09,South,177,0.0,0.0,97,0.00,,,0.00,Wunderground v.1.15,2013-10-03 12:15:00,
2013-10-03 08:20:00,59.3,58.4,30.09,South,177,0.0,0.0,97,0.00,,,0.00,Wunderground v.1.15,2013-10-03 12:20:00,
2013-10-03 08:25:00,59.5,58.6,30.09,South,177,0.0,0.0,97,0.00,,,0.00,Wunderground v.1.15,2013-10-03 12:25:00,
2013-10-03 08:31:00,59.8,58.9,30.09,South,177,0.0,0.0,97,0.00,,,0.00,Wunderground v.1.15,2013-10-03 12:31:00,
2013-10-03 08:36:00,60.0,59.1,30.09,South,177,0.0,0.0,97,0.00,,,0.00,Wunderground v.1.15,2013-10-03 12:36:00,
2013-10-03 08:42:00,60.2,59.3,30.09,South,177,0.0,0.0,97,0.00,,,0.00,Wunderground v.1.15,2013-10-03 12:42:00,
2013-10-03 08:47:00,60.5,59.6,30.09,South,177,0.0,0.0,97,0.00,,,0.00,Wunderground v.1.15,2013-10-03 12:47:00,
2013-10-03 08:52:00,60.8,59.9,30.09,South,178,0.0,0.0,97,0.00,,,0.00,Wunderground v.1.15,2013-10-03 12:52:00,
2013-10-03 08:57:00,61.1,60.2,30.10,South,177,0.0,0.0,97,0.00,,,0.00,Wunderground v.1.15,2013-10-03 12:57:00,
2013-10-03 09:03:00,61.3,60.4,30.10,South,177,0.0,0.0,97,0.00,,,0.00,Wunderground v.1.15,2013-10-03 13:03:00,
2013-10-03 09:08:00,61.6,60.7,30.10,South,177,0.0,0.0,97,0.00,,,0.00,Wunderground v.1.15,2013-10-03 13:08:00,
2013-10-03 09:13:00,62.0,61.1,30.10,SSE,163,0.0,0.0,97,0.00,,,0.00,Wunderground v.1.15,2013-10-03 13:13:00,
2013-10-03 09:18:00,62.2,61.3,30.10,SSE,163,0.0,0.0,97,0.00,,,0.00,Wunderground v.1.15,2013-10-03 13:18:00,
2013-10-03 09:24:00,62.3,61.4,30.10,SSE,163,0.0,0.0,97,0.00,,,0.00,Wunderground v.1.15,2013-10-03 13:24:00,
2013-10-03 09:29:00,62.6,61.7,30.09,SSE,163,0.0,0.0,97,0.00,,,0.00,Wunderground v.1.15,2013-10-03 13:29:00,
2013-10-03 09:34:00,63.0,62.1,30.09,SSE,163,0.0,0.0,97,0.00,,,0.00,Wunderground v.1.15,2013-10-03 13:34:00,
2013-10-03 09:39:00,63.5,62.6,30.10,SSE,163,0.0,0.0,97,0.00,,,0.00,Wunderground v.1.15,2013-10-03 13:39:00,
2013-10-03 09:45:00,64.1,63.2,30.10,SSE,163,0.0,0.0,97,0.00,,,0.00,Wunderground v.1.15,2013-10-03 13:45:00,
2013-10-03 09:50:00,64.3,63.4,30.10,SSE,163,0.0,0.0,97,0.00,,,0.00,Wunderground v.1.15,2013-10-03 13:50:00,
2013-10-03 09:55:00,64.3,63.4,30.09,SSE,163,0.0,0.0,97,0.00,,,0.00,Wunderground v.1.15,2013-10-03 13:55:00,
2013-10-03 10:00:00,64.4,63.5,30.09,SSE,163,0.0,0.0,97,0.00,,,0.00,Wunderground v.1.15,2013-10-03 14:00:00,
2013-10-03 10:06:00,64.6,63.7,30.09,ESE,115,0.0,0.0,97,0.00,,,0.00,Wunderground v.1.15,2013-10-03 14:06:00,
2013-10-03 10:11:00,64.8,63.9,30.09,ESE,115,0.0,0.0,97,0.00,,,0.00,Wunderground v.1.15,2013-10-03 14:11:00,
2013-10-03 10:16:00,65.0,64.1,30.09,ESE,115,0.0,0.0,97,0.00,,,0.00,Wunderground v.1.15,2013-10-03 14:16:00,
2013-10-03 10:21:00,65.3,64.1,30.09,ESE,115,0.0,0.0,96,0.00,,,0.00,Wunderground v.1.15,2013-10-03 14:21:00,
2013-10-03 10:26:00,66.0,64.5,30.09,ESE,115,0.0,0.0,95,0.00,,,0.00,Wunderground v.1.15,2013-10-03 14:26:00,
2013-10-03 10:31:00,66.6,64.2,30.09,ESE,115,0.0,0.0,92,0.00,,,0.00,Wunderground v.1.15,2013-10-03 14:31:00,
2013-10-03 10:37:00,67.3,64.3,30.09,ESE,115,0.0,0.0,90,0.00,,,0.00,Wunderground v.1.15,2013-10-03 14:37:00,
2013-10-03 10:42:00,68.0,64.6,30.09,ESE,115,0.0,0.0,89,0.00,,,0.00,Wunderground v.1.15,2013-10-03 14:42:00,
2013-10-03 10:47:00,69.2,65.5,30.09,SE,144,0.0,0.0,88,0.00,,,0.00,Wunderground v.1.15,2013-10-03 14:47:00,
2013-10-03 10:53:00,70.3,65.6,30.09,South,180,0.0,0.0,85,0.00,,,0.00,Wunderground v.1.15,2013-10-03 14:53:00,
2013-10-03 10:58:00,71.0,65.6,30.09,East,93,0.0,0.0,83,0.00,,,0.00,Wunderground v.1.15,2013-10-03 14:58:00,
2013-10-03 11:03:00,71.3,65.9,30.09,East,95,0.0,0.0,83,0.00,,,0.00,Wunderground v.1.15,2013-10-03 15:03:00,
2013-10-03 11:08:00,71.8,66.4,30.08,South,175,0.0,0.0,83,0.00,,,0.00,Wunderground v.1.15,2013-10-03 15:08:00,
2013-10-03 11:14:00,72.4,66.2,30.09,ESE,108,0.0,0.0,81,0.00,,,0.00,Wunderground v.1.15,2013-10-03 15:14:00,
2013-10-03 11:19:00,72.6,65.7,30.08,SSE,160,0.0,0.0,79,0.00,,,0.00,Wunderground v.1.15,2013-10-03 15:19:00,
2013-10-03 11:24:00,72.7,66.2,30.08,SSE,160,0.0,0.0,80,0.00,,,0.00,Wunderground v.1.15,2013-10-03 15:24:00,
2013-10-03 11:30:00,73.2,66.3,30.08,SE,133,0.0,0.0,79,0.00,,,0.00,Wunderground v.1.15,2013-10-03 15:30:00,
2013-10-03 11:35:00,73.5,66.6,30.08,ESE,123,0.0,0.0,79,0.00,,,0.00,Wunderground v.1.15,2013-10-03 15:35:00,
2013-10-03 11:40:00,74.1,66.8,30.08,East,95,0.0,0.0,78,0.00,,,0.00,Wunderground v.1.15,2013-10-03 15:40:00,
2013-10-03 11:45:00,74.7,67.8,30.08,East,95,0.0,0.0,79,0.00,,,0.00,Wunderground v.1.15,2013-10-03 15:45:00,
2013-10-03 11:51:00,75.4,66.9,30.08,NNE,20,0.0,0.0,75,0.00,,,0.00,Wunderground v.1.15,2013-10-03 15:51:00,
2013-10-03 11:56:00,75.4,66.1,30.08,East,95,0.0,0.0,73,0.00,,,0.00,Wunderground v.1.15,2013-10-03 15:56:00,
2013-10-03 12:01:00,75.3,66.0,30.08,ESE,110,0.0,0.0,73,0.00,,,0.00,Wunderground v.1.15,2013-10-03 16:01:00,
2013-10-03 12:06:00,75.5,66.6,30.08,East,101,0.0,0.0,74,0.00,,,0.00,Wunderground v.1.15,2013-10-03 16:06:00,
2013-10-03 12:12:00,75.6,66.7,30.07,East,96,0.0,0.0,74,0.00,,,0.00,Wunderground v.1.15,2013-10-03 16:12:00,
2013-10-03 12:17:00,75.6,66.7,30.07,East,96,0.0,0.0,74,0.00,,,0.00,Wunderground v.1.15,2013-10-03 16:17:00,
2013-10-03 12:22:00,75.7,66.4,30.07,East,96,0.0,0.0,73,0.00,,,0.00,Wunderground v.1.15,2013-10-03 16:22:00,
2013-10-03 12:27:00,75.9,66.2,30.07,NNE,18,0.0,0.0,72,0.00,,,0.00,Wunderground v.1.15,2013-10-03 16:27:00,
2013-10-03 12:33:00,76.2,67.7,30.07,ESE,107,0.0,0.0,75,0.00,,,0.00,Wunderground v.1.15,2013-10-03 16:33:00,
2013-10-03 12:39:00,76.3,67.4,30.07,ESE,106,0.0,0.0,74,0.00,,,0.00,Wunderground v.1.15,2013-10-03 16:39:00,
2013-10-03 12:44:00,76.4,66.7,30.07,SE,126,0.0,0.0,72,0.00,,,0.00,Wunderground v.1.15,2013-10-03 16:44:00,
2013-10-03 12:49:00,76.5,68.0,30.07,SE,126,0.0,0.0,75,0.00,,,0.00,Wunderground v.1.15,2013-10-03 16:49:00,
2013-10-03 12:54:00,76.5,68.4,30.06,SE,126,0.0,0.0,76,0.00,,,0.00,Wunderground v.1.15,2013-10-03 16:54:00,
2013-10-03 12:59:00,76.4,67.1,30.06,SE,126,0.0,0.0,73,0.00,,,0.00,Wunderground v.1.15,2013-10-03 16:59:00,
2013-10-03 13:05:00,76.5,66.4,30.06,ESE,105,0.0,0.0,71,0.00,,,0.00,Wunderground v.1.15,2013-10-03 17:05:00,
2013-10-03 13:10:00,76.7,66.6,30.06,ENE,64,0.0,0.0,71,0.00,,,0.00,Wunderground v.1.15,2013-10-03 17:10:00,
2013-10-03 13:15:00,76.6,66.5,30.06,East,97,0.0,0.0,71,0.00,,,0.00,Wunderground v.1.15,2013-10-03 17:15:00,
2013-10-03 13:20:00,76.5,68.0,30.06,NNE,30,0.0,0.0,75,0.00,,,0.00,Wunderground v.1.15,2013-10-03 17:20:00,
2013-10-03 13:25:00,76.5,67.6,30.05,ESE,115,0.0,0.0,74,0.00,,,0.00,Wunderground v.1.15,2013-10-03 17:25:00,
2013-10-03 13:31:00,76.7,67.0,30.05,East,90,0.0,0.0,72,0.00,,,0.00,Wunderground v.1.15,2013-10-03 17:31:00,
2013-10-03 13:37:00,76.8,66.7,30.05,NNE,22,0.0,0.0,71,0.00,,,0.00,Wunderground v.1.15,2013-10-03 17:37:00,
2013-10-03 13:42:00,76.7,66.6,30.05,SE,138,0.0,0.0,71,0.00,,,0.00,Wunderground v.1.15,2013-10-03 17:42:00,
2013-10-03 13:47:00,76.6,66.9,30.05,SE,138,0.0,0.0,72,0.00,,,0.00,Wunderground v.1.15,2013-10-03 17:47:00,
2013-10-03 13:53:00,76.7,67.0,30.04,ESE,115,0.0,0.0,72,0.00,,,0.00,Wunderground v.1.15,2013-10-03 17:53:00,
2013-10-03 13:58:00,76.8,67.1,30.04,ESE,103,0.0,0.0,72,0.00,,,0.00,Wunderground v.1.15,2013-10-03 17:58:00,
2013-10-03 14:03:00,77.1,67.0,30.04,NNW,348,0.0,0.0,71,0.00,,,0.00,Wunderground v.1.15,2013-10-03 18:03:00,
2013-10-03 14:08:00,77.2,67.9,30.04,ENE,59,0.0,0.0,73,0.00,,,0.00,Wunderground v.1.15,2013-10-03 18:08:00,
2013-10-03 14:14:00,77.1,67.8,30.04,East,84,0.0,0.0,73,0.00,,,0.00,Wunderground v.1.15,2013-10-03 18:14:00,
2013-10-03 14:19:00,76.7,67.0,30.04,SE,140,0.0,0.0,72,0.00,,,0.00,Wunderground v.1.15,2013-10-03 18:19:00,
2013-10-03 14:24:00,76.3,67.8,30.04,SE,140,0.0,0.0,75,0.00,,,0.00,Wunderground v.1.15,2013-10-03 18:24:00,
2013-10-03 14:29:00,75.7,68.4,30.04,SE,140,0.0,0.0,78,0.00,,,0.00,Wunderground v.1.15,2013-10-03 18:29:00,
2013-10-03 14:34:00,75.2,68.2,30.04,SE,140,0.0,0.0,79,0.00,,,0.00,Wunderground v.1.15,2013-10-03 18:34:00,
2013-10-03 14:39:00,74.2,68.0,30.04,SE,140,0.0,0.0,81,0.00,,,0.01,Wunderground v.1.15,2013-10-03 18:39:00,
2013-10-03 14:45:00,73.0,67.9,30.04,SE,140,0.0,0.0,84,0.00,,,0.01,Wunderground v.1.15,2013-10-03 18:45:00,
2013-10-03 14:50:00,72.2,67.8,30.04,SE,140,0.0,0.0,86,0.08,,,0.02,Wunderground v.1.15,2013-10-03 18:50:00,
2013-10-03 14:55:00,71.8,68.4,30.03,SE,140,0.0,0.0,89,0.06,,,0.02,Wunderground v.1.15,2013-10-03 18:55:00,
2013-10-03 15:00:00,71.7,68.6,30.03,SE,140,0.0,0.0,90,0.04,,,0.02,Wunderground v.1.15,2013-10-03 19:00:00,
2013-10-03 15:06:00,71.7,68.9,30.03,SE,140,0.0,0.0,91,0.00,,,0.02,Wunderground v.1.15,2013-10-03 19:06:00,
2013-10-03 15:11:00,72.0,69.2,30.03,SE,140,0.0,0.0,91,0.00,,,0.02,Wunderground v.1.15,2013-10-03 19:11:00,
2013-10-03 15:17:00,72.1,68.7,30.03,SE,140,0.0,0.0,89,0.00,,,0.02,Wunderground v.1.15,2013-10-03 19:17:00,
2013-10-03 15:22:00,72.3,68.9,30.03,SE,140,0.0,0.0,89,0.00,,,0.02,Wunderground v.1.15,2013-10-03 19:22:00,
2013-10-03 15:27:00,72.6,69.2,30.03,SE,140,0.0,0.0,89,0.00,,,0.02,Wunderground v.1.15,2013-10-03 19:27:00,
2013-10-03 15:32:00,72.9,69.8,30.02,SE,140,0.0,0.0,90,0.00,,,0.02,Wunderground v.1.15,2013-10-03 19:32:00,
2013-10-03 15:38:00,73.2,69.8,30.02,SE,140,0.0,0.0,89,0.00,,,0.02,Wunderground v.1.15,2013-10-03 19:38:00,
2013-10-03 15:43:00,73.4,70.3,30.02,SE,140,0.0,0.0,90,0.00,,,0.02,Wunderground v.1.15,2013-10-03 19:43:00,
2013-10-03 15:48:00,73.5,70.7,30.02,SE,140,0.0,0.0,91,0.00,,,0.02,Wunderground v.1.15,2013-10-03 19:48:00,
2013-10-03 15:54:00,73.8,70.4,30.01,SE,140,0.0,0.0,89,0.00,,,0.02,Wunderground v.1.15,2013-10-03 19:54:00,
2013-10-03 15:59:00,73.9,70.5,30.02,SE,140,0.0,0.0,89,0.00,,,0.02,Wunderground v.1.15,2013-10-03 19:59:00,
2013-10-03 16:05:00,74.0,70.2,30.01,SE,140,0.0,0.0,88,0.00,,,0.02,Wunderground v.1.15,2013-10-03 20:05:00,
2013-10-03 16:10:00,74.1,70.3,30.01,SE,140,0.0,0.0,88,0.00,,,0.02,Wunderground v.1.15,2013-10-03 20:10:00,
2013-10-03 16:15:00,74.3,70.5,30.01,SE,140,0.0,0.0,88,0.00,,,0.02,Wunderground v.1.15,2013-10-03 20:15:00,
2013-10-03 16:20:00,74.3,68.8,30.01,SE,138,0.0,0.0,83,0.00,,,0.02,Wunderground v.1.15,2013-10-03 20:20:00,
2013-10-03 16:26:00,74.4,70.3,30.01,SE,138,0.0,0.0,87,0.00,,,0.02,Wunderground v.1.15,2013-10-03 20:26:00,
2013-10-03 16:32:00,74.4,69.9,30.01,SE,138,0.0,0.0,86,0.00,,,0.02,Wunderground v.1.15,2013-10-03 20:32:00,
2013-10-03 16:37:00,74.3,68.8,30.01,SSE,162,0.0,0.0,83,0.00,,,0.02,Wunderground v.1.15,2013-10-03 20:37:00,
2013-10-03 16:42:00,74.2,69.4,30.01,SSE,162,0.0,0.0,85,0.00,,,0.02,Wunderground v.1.15,2013-10-03 20:42:00,
2013-10-03 16:48:00,73.9,69.8,30.01,SSE,162,0.0,0.0,87,0.00,,,0.02,Wunderground v.1.15,2013-10-03 20:48:00,
2013-10-03 16:54:00,73.4,69.0,30.01,SSE,162,0.0,0.0,86,0.00,,,0.02,Wunderground v.1.15,2013-10-03 20:54:00,
2013-10-03 16:59:00,73.1,69.0,30.01,SSE,162,0.0,0.0,87,0.00,,,0.02,Wunderground v.1.15,2013-10-03 20:59:00,
2013-10-03 17:05:00,72.8,68.7,30.01,South,171,0.0,0.0,87,0.00,,,0.02,Wunderground v.1.15,2013-10-03 21:05:00,
2013-10-03 17:10:00,72.6,68.2,30.01,South,171,0.0,0.0,86,0.00,,,0.02,Wunderground v.1.15,2013-10-03 21:10:00,
2013-10-03 17:15:00,72.4,68.6,30.01,South,171,0.0,0.0,88,0.00,,,0.02,Wunderground v.1.15,2013-10-03 21:15:00,
2013-10-03 17:21:00,72.1,68.3,30.01,South,171,0.0,0.0,88,0.00,,,0.02,Wunderground v.1.15,2013-10-03 21:21:00,
2013-10-03 17:26:00,71.9,68.5,30.01,South,171,0.0,0.0,89,0.00,,,0.02,Wunderground v.1.15,2013-10-03 21:26:00,
2013-10-03 17:32:00,71.7,68.3,30.01,South,171,0.0,0.0,89,0.00,,,0.02,Wunderground v.1.15,2013-10-03 21:32:00,
2013-10-03 17:37:00,71.5,68.1,30.01,South,171,0.0,0.0,89,0.00,,,0.02,Wunderground v.1.15,2013-10-03 21:37:00,
2013-10-03 17:42:00,71.3,68.2,30.01,South,171,0.0,0.0,90,0.00,,,0.02,Wunderground v.1.15,2013-10-03 21:42:00,
2013-10-03 17:48:00,71.2,68.1,30.01,South,171,0.0,0.0,90,0.00,,,0.02,Wunderground v.1.15,2013-10-03 21:48:00,
2013-10-03 17:53:00,71.1,68.0,30.01,South,171,0.0,0.0,90,0.00,,,0.02,Wunderground v.1.15,2013-10-03 21:53:00,
2013-10-03 17:58:00,71.0,67.6,30.01,South,171,0.0,0.0,89,0.00,,,0.02,Wunderground v.1.15,2013-10-03 21:58:00,
2013-10-03 18:04:00,70.9,67.8,30.00,South,171,0.0,0.0,90,0.00,,,0.02,Wunderground v.1.15,2013-10-03 22:04:00,
2013-10-03 18:09:00,70.8,67.7,30.00,South,171,0.0,0.0,90,0.00,,,0.02,Wunderground v.1.15,2013-10-03 22:09:00,
2013-10-03 18:14:00,70.6,67.5,30.00,South,171,0.0,0.0,90,0.00,,,0.02,Wunderground v.1.15,2013-10-03 22:14:00,
2013-10-03 18:20:00,70.3,67.2,30.00,South,171,0.0,0.0,90,0.00,,,0.02,Wunderground v.1.15,2013-10-03 22:20:00,
2013-10-03 18:25:00,70.0,67.3,30.01,South,171,0.0,0.0,91,0.00,,,0.02,Wunderground v.1.15,2013-10-03 22:25:00,
2013-10-03 18:30:00,69.7,67.0,30.01,South,171,0.0,0.0,91,0.00,,,0.02,Wunderground v.1.15,2013-10-03 22:30:00,
2013-10-03 18:36:00,69.4,66.7,30.01,South,171,0.0,0.0,91,0.00,,,0.02,Wunderground v.1.15,2013-10-03 22:36:00,
2013-10-03 18:41:00,69.2,66.5,30.01,South,171,0.0,0.0,91,0.00,,,0.02,Wunderground v.1.15,2013-10-03 22:41:00,
2013-10-03 18:47:00,68.9,66.2,30.01,South,171,0.0,0.0,91,0.00,,,0.02,Wunderground v.1.15,2013-10-03 22:47:00,
2013-10-03 18:52:00,68.7,66.3,30.01,South,171,0.0,0.0,92,0.00,,,0.02,Wunderground v.1.15,2013-10-03 22:52:00,
2013-10-03 18:57:00,68.5,66.1,30.01,South,171,0.0,0.0,92,0.00,,,0.02,Wunderground v.1.15,2013-10-03 22:57:00,
2013-10-03 19:03:00,68.4,66.0,30.01,South,171,0.0,0.0,92,0.00,,,0.02,Wunderground v.1.15,2013-10-03 23:03:00,
2013-10-03 19:08:00,68.3,65.9,30.02,South,171,0.0,0.0,92,0.00,,,0.02,Wunderground v.1.15,2013-10-03 23:08:00,
2013-10-03 19:13:00,68.1,66.0,30.02,South,171,0.0,0.0,93,0.00,,,0.02,Wunderground v.1.15,2013-10-03 23:13:00,
2013-10-03 19:19:00,68.0,65.9,30.02,South,171,0.0,0.0,93,0.00,,,0.02,Wunderground v.1.15,2013-10-03 23:19:00,
2013-10-03 19:24:00,67.9,65.8,30.02,South,171,0.0,0.0,93,0.00,,,0.02,Wunderground v.1.15,2013-10-03 23:24:00,
2013-10-03 19:29:00,67.8,65.7,30.01,South,171,0.0,0.0,93,0.00,,,0.02,Wunderground v.1.15,2013-10-03 23:29:00,
2013-10-03 19:34:00,67.7,65.6,30.01,South,171,0.0,0.0,93,0.00,,,0.02,Wunderground v.1.15,2013-10-03 23:34:00,
2013-10-03 19:40:00,67.5,65.4,30.02,South,171,0.0,0.0,93,0.00,,,0.02,Wunderground v.1.15,2013-10-03 23:40:00,
2013-10-03 19:45:00,67.4,65.6,30.02,South,171,0.0,0.0,94,0.00,,,0.02,Wunderground v.1.15,2013-10-03 23:45:00,
2013-10-03 19:50:00,67.4,65.6,30.02,South,171,0.0,0.0,94,0.00,,,0.02,Wunderground v.1.15,2013-10-03 23:50:00,
2013-10-03 19:56:00,67.3,65.5,30.02,South,171,0.0,0.0,94,0.00,,,0.02,Wunderground v.1.15,2013-10-03 23:56:00,
2013-10-03 20:02:00,67.2,65.4,30.02,South,171,0.0,0.0,94,0.00,,,0.02,Wunderground v.1.15,2013-10-04 00:02:00,
2013-10-03 20:07:00,67.2,65.4,30.02,South,171,0.0,0.0,94,0.00,,,0.02,Wunderground v.1.15,2013-10-04 00:07:00,
2013-10-03 20:12:00,67.2,65.4,30.02,South,171,0.0,0.0,94,0.00,,,0.02,Wunderground v.1.15,2013-10-04 00:12:00,
2013-10-03 20:17:00,67.3,65.8,30.03,SSE,149,0.0,0.0,95,0.00,,,0.02,Wunderground v.1.15,2013-10-04 00:17:00,
2013-10-03 20:23:00,67.5,66.0,30.04,SSE,149,0.0,0.0,95,0.00,,,0.02,Wunderground v.1.15,2013-10-04 00:23:00,
2013-10-03 20:28:00,67.7,66.2,30.04,SSE,149,0.0,0.0,95,0.00,,,0.03,Wunderground v.1.15,2013-10-04 00:28:00,
2013-10-03 20:33:00,67.9,66.1,30.04,SSE,149,0.0,0.0,94,0.00,,,0.03,Wunderground v.1.15,2013-10-04 00:33:00,
2013-10-03 20:39:00,68.1,66.3,30.05,SSE,149,0.0,0.0,94,0.00,,,0.03,Wunderground v.1.15,2013-10-04 00:39:00,
2013-10-03 20:44:00,68.1,66.3,30.05,SSE,149,0.0,0.0,94,0.00,,,0.03,Wunderground v.1.15,2013-10-04 00:44:00,
2013-10-03 20:49:00,68.1,66.3,30.05,SSE,149,0.0,0.0,94,0.00,,,0.04,Wunderground v.1.15,2013-10-04 00:49:00,
2013-10-03 20:54:00,68.1,66.6,30.05,SSE,149,0.0,0.0,95,0.00,,,0.04,Wunderground v.1.15,2013-10-04 00:54:00,
2013-10-03 21:00:00,68.0,66.2,30.05,SSE,149,0.0,0.0,94,0.00,,,0.04,Wunderground v.1.15,2013-10-04 01:00:00,
2013-10-03 21:06:00,67.9,66.4,30.05,SSE,149,0.0,0.0,95,0.00,,,0.04,Wunderground v.1.15,2013-10-04 01:06:00,
2013-10-03 21:11:00,67.8,66.0,30.06,SSE,149,0.0,0.0,94,0.00,,,0.04,Wunderground v.1.15,2013-10-04 01:11:00,
2013-10-03 21:16:00,67.7,65.9,30.06,SSE,149,0.0,0.0,94,0.00,,,0.04,Wunderground v.1.15,2013-10-04 01:16:00,
2013-10-03 21:22:00,67.6,66.1,30.06,SSE,149,0.0,0.0,95,0.00,,,0.04,Wunderground v.1.15,2013-10-04 01:22:00,
2013-10-03 21:28:00,67.5,66.0,30.05,SSE,149,0.0,0.0,95,0.00,,,0.04,Wunderground v.1.15,2013-10-04 01:28:00,
2013-10-03 21:33:00,67.4,65.9,30.05,SSE,149,0.0,0.0,95,0.00,,,0.04,Wunderground v.1.15,2013-10-04 01:33:00,
2013-10-03 21:39:00,67.2,65.7,30.05,SSE,149,0.0,0.0,95,0.00,,,0.04,Wunderground v.1.15,2013-10-04 01:39:00,
2013-10-03 21:44:00,67.1,65.6,30.05,SSE,149,0.0,0.0,95,0.00,,,0.04,Wunderground v.1.15,2013-10-04 01:44:00,
2013-10-03 21:49:00,66.9,65.4,30.05,SSE,149,0.0,0.0,95,0.00,,,0.04,Wunderground v.1.15,2013-10-04 01:49:00,
2013-10-03 21:55:00,66.8,65.3,30.05,SSE,149,0.0,0.0,95,0.00,,,0.04,Wunderground v.1.15,2013-10-04 01:55:00,
2013-10-03 22:00:00,66.7,65.2,30.06,SSE,149,0.0,0.0,95,0.00,,,0.04,Wunderground v.1.15,2013-10-04 02:00:00,
2013-10-03 22:06:00,66.6,65.1,30.05,SSE,149,0.0,0.0,95,0.00,,,0.04,Wunderground v.1.15,2013-10-04 02:06:00,
2013-10-03 22:11:00,66.5,65.0,30.05,SSE,149,0.0,0.0,95,0.00,,,0.04,Wunderground v.1.15,2013-10-04 02:11:00,
2013-10-03 22:17:00,66.4,64.9,30.05,SSE,149,0.0,0.0,95,0.00,,,0.04,Wunderground v.1.15,2013-10-04 02:17:00,
2013-10-03 22:22:00,66.3,64.8,30.05,SSE,149,0.0,0.0,95,0.00,,,0.04,Wunderground v.1.15,2013-10-04 02:22:00,
2013-10-03 22:27:00,66.3,64.8,30.05,SSE,149,0.0,0.0,95,0.00,,,0.04,Wunderground v.1.15,2013-10-04 02:27:00,
2013-10-03 22:33:00,66.2,64.7,30.05,SSE,149,0.0,0.0,95,0.00,,,0.04,Wunderground v.1.15,2013-10-04 02:33:00,
2013-10-03 22:38:00,66.2,64.7,30.05,SSE,149,0.0,0.0,95,0.00,,,0.04,Wunderground v.1.15,2013-10-04 02:38:00,
2013-10-03 22:43:00,66.1,64.6,30.05,SSE,149,0.0,0.0,95,0.00,,,0.04,Wunderground v.1.15,2013-10-04 02:43:00,
2013-10-03 22:48:00,66.0,64.5,30.05,SSE,149,0.0,0.0,95,0.00,,,0.04,Wunderground v.1.15,2013-10-04 02:48:00,
2013-10-03 22:54:00,65.9,64.4,30.05,SSE,149,0.0,0.0,95,0.00,,,0.04,Wunderground v.1.15,2013-10-04 02:54:00,
2013-10-03 22:59:00,65.9,64.7,30.05,SSE,149,0.0,0.0,96,0.00,,,0.04,Wunderground v.1.15,2013-10-04 02:59:00,
2013-10-03 23:05:00,65.9,64.7,30.05,SSE,149,0.0,0.0,96,0.00,,,0.04,Wunderground v.1.15,2013-10-04 03:05:00,
2013-10-03 23:10:00,65.9,64.7,30.05,SSE,149,0.0,0.0,96,0.00,,,0.04,Wunderground v.1.15,2013-10-04 03:10:00,
2013-10-03 23:16:00,65.8,64.6,30.05,SSE,149,0.0,0.0,96,0.00,,,0.04,Wunderground v.1.15,2013-10-04 03:16:00,
2013-10-03 23:21:00,65.8,64.6,30.05,SSE,149,0.0,0.0,96,0.00,,,0.04,Wunderground v.1.15,2013-10-04 03:21:00,
2013-10-03 23:27:00,65.7,64.5,30.05,SSE,149,0.0,0.0,96,0.00,,,0.04,Wunderground v.1.15,2013-10-04 03:27:00,
2013-10-03 23:32:00,65.7,64.5,30.05,SSE,149,0.0,0.0,96,0.00,,,0.04,Wunderground v.1.15,2013-10-04 03:32:00,
2013-10-03 23:37:00,65.6,64.4,30.05,SSE,149,0.0,0.0,96,0.00,,,0.04,Wunderground v.1.15,2013-10-04 03:37:00,
2013-10-03 23:43:00,65.6,64.4,30.05,SSE,149,0.0,0.0,96,0.00,,,0.04,Wunderground v.1.15,2013-10-04 03:43:00,
2013-10-03 23:48:00,65.6,64.4,30.05,SSE,149,0.0,0.0,96,0.00,,,0.04,Wunderground v.1.15,2013-10-04 03:48:00,
2013-10-03 23:54:00,65.6,64.4,30.05,SSE,149,0.0,0.0,96,0.00,,,0.04,Wunderground v.1.15,2013-10-04 03:54:00,
2013-10-03 23:59:00,65.7,64.5,30.05,SSE,149,0.0,0.0,96,0.00,,,0.04,Wunderground v.1.15,2013-10-04 03:59:00,